createdAt,value
2019-02-17T00:00:48.771Z,94.70
2019-02-17T00:03:43.456Z,91.67
2019-02-17T00:06:38.341Z,94.67
2019-02-17T00:09:33.215Z,94.52
2019-02-17T00:12:27.829Z,97.65
2019-02-17T00:15:22.243Z,105.10
2019-02-17T00:18:17.086Z,99.77
2019-02-17T00:21:11.784Z,94.70
2019-02-17T00:24:06.786Z,98.22
2019-02-17T00:27:02.481Z,97.72
2019-02-17T00:29:57.276Z,99.50
2019-02-17T00:32:51.773Z,102.82
2019-02-17T00:35:46.376Z,102.97
2019-02-17T00:38:41.487Z,103.75
2019-02-17T00:41:36.086Z,104.23
2019-02-17T00:44:30.692Z,97.05
2019-02-17T00:47:25.555Z,94.42
2019-02-17T00:50:20.634Z,93.22
2019-02-17T00:53:15.458Z,92.70
2019-02-17T00:56:10.435Z,95.70
2019-02-17T00:59:10.263Z,92.80
2019-02-17T01:02:01.964Z,97.67
2019-02-17T01:04:56.649Z,92.25
2019-02-17T01:07:51.531Z,90.55
2019-02-17T01:10:46.168Z,90.47
2019-02-17T01:13:40.786Z,92.62
2019-02-17T01:16:35.373Z,93.17
2019-02-17T01:19:30.005Z,93.35
2019-02-17T01:22:24.540Z,93.72
2019-02-17T01:25:19.226Z,89.77
2019-02-17T01:28:14.195Z,92.80
2019-02-17T01:31:09.308Z,91.78
2019-02-17T01:34:15.297Z,91.90
2019-02-17T01:37:09.785Z,98.72
2019-02-17T01:40:05.028Z,111.15
2019-02-17T01:42:59.860Z,125.62
2019-02-17T01:45:54.967Z,120.30
2019-02-17T01:48:49.734Z,75.32
2019-02-17T01:51:44.639Z,71.67
2019-02-17T01:54:39.135Z,69.55
2019-02-17T01:57:34.055Z,64.90
2019-02-17T02:00:30.040Z,66.45
2019-02-17T02:03:24.861Z,67.78
2019-02-17T02:06:19.671Z,63.95
2019-02-17T02:09:15.351Z,67.05
2019-02-17T02:12:10.338Z,66.70
2019-02-17T02:15:05.633Z,70.47
2019-02-17T02:18:00.521Z,72.05
2019-02-17T02:20:55.115Z,72.82
2019-02-17T02:23:50.062Z,73.30
2019-02-17T02:26:44.697Z,73.52
2019-02-17T02:29:41.403Z,74.50
2019-02-17T02:32:34.615Z,72.58
2019-02-17T02:35:29.347Z,73.35
2019-02-17T02:38:24.277Z,75.35
2019-02-17T02:41:18.988Z,69.27
2019-02-17T02:44:13.929Z,63.05
2019-02-17T02:47:08.509Z,64.62
2019-02-17T02:50:03.245Z,59.20
2019-02-17T02:52:57.768Z,49.55
2019-02-17T02:55:53.256Z,47.93
2019-02-17T02:58:47.807Z,49.60
2019-02-17T03:01:42.506Z,49.73
2019-02-17T03:04:37.479Z,51.90
2019-02-17T03:07:33.017Z,50.83
2019-02-17T03:10:27.913Z,52.20
2019-02-17T03:13:22.465Z,54.35
2019-02-17T03:16:17.156Z,54.50
2019-02-17T03:19:11.736Z,53.05
2019-02-17T03:22:06.471Z,50.12
2019-02-17T03:25:01.328Z,51.68
2019-02-17T03:27:56.347Z,52.30
2019-02-17T03:30:51.136Z,51.58
2019-02-17T03:33:45.728Z,50.60
2019-02-17T03:36:41.188Z,54.45
2019-02-17T03:39:36.120Z,51.23
2019-02-17T03:42:31.426Z,52.10
2019-02-17T03:45:26.588Z,51.63
2019-02-17T03:48:21.171Z,53.28
2019-02-17T03:51:15.592Z,52.35
2019-02-17T03:54:10.245Z,53.90
2019-02-17T03:57:05.262Z,51.83
2019-02-17T04:00:00.402Z,53.48
2019-02-17T04:02:55.034Z,54.35
2019-02-17T04:05:49.858Z,54.42
2019-02-17T04:08:44.544Z,56.05
2019-02-17T04:11:39.200Z,57.00
2019-02-17T04:14:34.257Z,54.77
2019-02-17T04:17:29.671Z,54.53
2019-02-17T04:20:24.582Z,54.05
2019-02-17T04:23:30.388Z,58.17
2019-02-17T04:26:15.817Z,53.08
2019-02-17T04:29:11.382Z,52.62
2019-02-17T04:32:06.108Z,52.90
2019-02-17T04:35:02.194Z,63.83
2019-02-17T04:37:57.878Z,52.95
2019-02-17T04:40:52.918Z,59.42
2019-02-17T04:43:47.814Z,61.13
2019-02-17T04:46:42.706Z,80.53
2019-02-17T04:49:37.771Z,72.17
2019-02-17T04:52:32.699Z,70.42
2019-02-17T04:55:27.658Z,66.17
2019-02-17T04:58:22.911Z,69.67
2019-02-17T05:01:18.455Z,74.35
2019-02-17T05:04:13.543Z,70.52
2019-02-17T05:07:08.200Z,67.55
2019-02-17T05:10:03.745Z,65.67
2019-02-17T05:12:58.440Z,69.95
2019-02-17T05:15:53.448Z,68.30
2019-02-17T05:18:48.420Z,66.97
2019-02-17T05:21:43.949Z,68.52
2019-02-17T05:24:39.395Z,67.65
2019-02-17T05:27:34.487Z,68.52
2019-02-17T05:30:29.432Z,65.42
2019-02-17T05:33:24.299Z,64.00
2019-02-17T05:36:19.107Z,63.05
2019-02-17T05:39:14.908Z,63.80
2019-02-17T05:42:09.753Z,59.13
2019-02-17T05:45:05.629Z,58.02
2019-02-17T05:48:00.894Z,51.98
2019-02-17T05:50:56.078Z,52.75
2019-02-17T05:53:50.803Z,51.08
2019-02-17T05:56:45.765Z,49.83
2019-02-17T05:59:40.458Z,49.48
2019-02-17T06:02:35.655Z,48.50
2019-02-17T06:05:31.122Z,48.58
2019-02-17T06:08:26.143Z,48.38
2019-02-17T06:11:21.182Z,48.90
2019-02-17T06:14:16.007Z,46.23
2019-02-17T06:17:10.709Z,47.93
2019-02-17T06:20:06.113Z,47.55
2019-02-17T06:23:01.858Z,47.62
2019-02-17T06:25:57.185Z,46.35
2019-02-17T06:28:52.091Z,45.67
2019-02-17T06:31:46.700Z,42.40
2019-02-17T06:34:41.487Z,39.53
2019-02-17T06:37:36.096Z,41.02
2019-02-17T06:40:31.201Z,41.45
2019-02-17T06:43:26.151Z,49.93
2019-02-17T06:46:25.680Z,40.45
2019-02-17T06:49:20.731Z,42.80
2019-02-17T06:52:16.912Z,40.58
2019-02-17T06:55:36.125Z,41.58
2019-02-17T06:58:31.198Z,40.58
2019-02-17T07:01:25.825Z,37.65
2019-02-17T07:04:21.296Z,39.60
2019-02-17T07:07:16.844Z,39.38
2019-02-17T07:10:11.929Z,39.10
2019-02-17T07:13:06.880Z,40.17
2019-02-17T07:16:01.619Z,42.13
2019-02-17T07:18:56.550Z,40.60
2019-02-17T07:21:51.967Z,40.65
2019-02-17T07:24:47.197Z,38.70
2019-02-17T07:27:42.158Z,37.93
2019-02-17T07:30:36.932Z,39.98
2019-02-17T07:33:32.692Z,37.20
2019-02-17T07:36:27.513Z,36.33
2019-02-17T07:39:22.803Z,37.17
2019-02-17T07:42:17.923Z,39.75
2019-02-17T07:45:12.730Z,36.85
2019-02-17T07:48:07.774Z,34.80
2019-02-17T07:51:02.822Z,35.68
2019-02-17T07:53:58.350Z,36.03
2019-02-17T07:56:53.379Z,35.95
2019-02-17T07:59:48.681Z,35.52
2019-02-17T08:02:44.103Z,36.15
2019-02-17T08:05:38.998Z,35.05
2019-02-17T08:08:33.805Z,36.08
2019-02-17T08:11:29.086Z,35.30
2019-02-17T08:14:24.368Z,36.38
2019-02-17T08:17:19.196Z,36.48
2019-02-17T08:20:14.320Z,36.23
2019-02-17T08:23:09.340Z,36.53
2019-02-17T08:26:04.133Z,36.38
2019-02-17T08:28:59.644Z,36.53
2019-02-17T08:31:56.106Z,37.95
2019-02-17T08:34:50.487Z,39.70
2019-02-17T08:37:45.969Z,39.35
2019-02-17T08:40:41.266Z,38.58
2019-02-17T08:43:36.592Z,40.33
2019-02-17T08:46:31.412Z,39.10
2019-02-17T08:49:26.443Z,42.50
2019-02-17T08:52:21.357Z,41.60
2019-02-17T08:55:16.684Z,41.55
2019-02-17T08:58:11.938Z,44.58
2019-02-17T09:01:07.512Z,45.75
2019-02-17T09:04:02.650Z,45.10
2019-02-17T09:06:57.758Z,45.63
2019-02-17T09:09:52.780Z,43.35
2019-02-17T09:12:47.805Z,45.00
2019-02-17T09:15:42.975Z,46.33
2019-02-17T09:18:38.228Z,44.53
2019-02-17T09:21:32.982Z,45.08
2019-02-17T09:24:28.186Z,46.02
2019-02-17T09:27:23.076Z,45.55
2019-02-17T09:30:19.934Z,48.30
2019-02-17T09:33:15.233Z,48.08
2019-02-17T09:36:10.596Z,49.67
2019-02-17T09:39:07.736Z,51.35
2019-02-17T09:42:02.069Z,50.88
2019-02-17T09:44:56.821Z,49.95
2019-02-17T09:47:51.388Z,49.33
2019-02-17T09:50:46.542Z,49.25
2019-02-17T09:53:41.829Z,50.23
2019-02-17T09:56:36.389Z,50.10
2019-02-17T09:59:31.223Z,51.08
2019-02-17T10:02:26.775Z,48.50
2019-02-17T10:05:21.083Z,47.88
2019-02-17T10:08:15.833Z,48.28
2019-02-17T10:11:10.634Z,48.33
2019-02-17T10:14:05.454Z,49.00
2019-02-17T10:17:00.249Z,49.73
2019-02-17T10:19:55.012Z,51.00
2019-02-17T10:22:49.860Z,48.78
2019-02-17T10:25:44.556Z,48.42
2019-02-17T10:28:42.445Z,45.12
2019-02-17T10:31:34.451Z,47.73
2019-02-17T10:34:29.505Z,44.50
2019-02-17T10:37:24.240Z,44.88
2019-02-17T10:40:19.310Z,42.83
2019-02-17T10:43:14.240Z,40.10
2019-02-17T10:46:09.215Z,40.12
2019-02-17T10:49:04.278Z,41.92
2019-02-17T10:51:58.972Z,41.28
2019-02-17T10:54:53.602Z,40.15
2019-02-17T10:57:49.409Z,41.88
2019-02-17T11:00:44.158Z,41.23
2019-02-17T11:03:38.833Z,40.80
2019-02-17T11:06:33.846Z,41.13
2019-02-17T11:09:28.564Z,41.80
2019-02-17T11:12:23.711Z,42.15
2019-02-17T11:15:20.395Z,41.15
2019-02-17T11:18:15.249Z,40.75
2019-02-17T11:21:10.210Z,39.88
2019-02-17T11:24:04.989Z,39.80
2019-02-17T11:26:59.533Z,38.92
2019-02-17T11:29:54.321Z,39.67
2019-02-17T11:32:57.697Z,39.73
2019-02-17T11:35:44.096Z,39.92
2019-02-17T11:38:38.995Z,39.10
2019-02-17T11:41:33.810Z,38.58
2019-02-17T11:44:28.643Z,38.75
2019-02-17T11:47:23.589Z,40.08
2019-02-17T11:50:19.443Z,40.03
2019-02-17T11:53:14.086Z,39.65
2019-02-17T11:56:08.418Z,41.53
2019-02-17T11:59:03.094Z,40.40
2019-02-17T12:01:57.790Z,40.28
2019-02-17T12:04:52.856Z,40.17
2019-02-17T12:07:47.779Z,39.67
2019-02-17T12:10:42.651Z,39.48
2019-02-17T12:13:37.256Z,40.17
2019-02-17T12:16:36.941Z,41.77
2019-02-17T12:19:27.516Z,40.03
2019-02-17T12:22:27.518Z,41.37
2019-02-17T12:25:30.261Z,40.50
2019-02-17T12:28:35.809Z,40.00
2019-02-17T12:31:34.188Z,48.00
2019-02-17T12:34:29.142Z,42.38
2019-02-17T12:37:24.430Z,43.10
2019-02-17T12:40:19.415Z,41.68
2019-02-17T12:43:14.269Z,41.08
2019-02-17T12:46:09.358Z,47.43
2019-02-17T12:49:04.125Z,47.05
2019-02-17T12:51:59.438Z,44.80
2019-02-17T12:54:55.996Z,46.40
2019-02-17T12:57:50.975Z,43.08
2019-02-17T13:00:45.886Z,41.75
2019-02-17T13:03:40.474Z,41.73
2019-02-17T13:06:35.440Z,43.00
2019-02-17T13:09:30.376Z,44.18
2019-02-17T13:12:25.178Z,46.13
2019-02-17T13:15:20.117Z,46.98
2019-02-17T13:18:14.691Z,47.30
2019-02-17T13:21:09.605Z,47.83
2019-02-17T13:24:04.157Z,48.68
2019-02-17T13:26:58.967Z,49.05
2019-02-17T13:29:53.793Z,50.50
2019-02-17T13:32:48.669Z,54.85
2019-02-17T13:35:43.899Z,56.02
2019-02-17T13:38:38.708Z,58.85
2019-02-17T13:41:33.597Z,63.02
2019-02-17T13:44:28.401Z,57.27
2019-02-17T13:47:23.546Z,51.35
2019-02-17T13:50:18.681Z,52.25
2019-02-17T13:53:13.691Z,55.30
2019-02-17T13:56:08.301Z,55.55
2019-02-17T13:59:03.301Z,55.50
2019-02-17T14:01:57.960Z,56.95
2019-02-17T14:04:52.575Z,59.08
2019-02-17T14:07:47.316Z,60.12
2019-02-17T14:10:42.438Z,63.98
2019-02-17T14:13:37.340Z,57.25
2019-02-17T14:16:31.870Z,56.37
2019-02-17T14:19:26.677Z,57.78
2019-02-17T14:22:21.491Z,60.90
2019-02-17T14:25:16.381Z,56.40
2019-02-17T14:28:11.166Z,54.45
2019-02-17T14:31:06.122Z,54.05
2019-02-17T14:34:01.210Z,53.95
2019-02-17T14:36:55.980Z,55.50
2019-02-17T14:39:50.850Z,49.70
2019-02-17T14:42:45.782Z,52.83
2019-02-17T14:45:40.474Z,52.83
2019-02-17T14:48:37.024Z,53.28
2019-02-17T14:51:32.052Z,51.80
2019-02-17T14:54:26.983Z,49.42
2019-02-17T14:57:22.051Z,48.30
2019-02-17T15:00:17.190Z,41.70
2019-02-17T15:03:11.710Z,39.80
2019-02-17T15:06:06.900Z,42.10
2019-02-17T15:09:01.681Z,37.83
2019-02-17T15:11:57.062Z,38.85
2019-02-17T15:14:51.588Z,37.65
2019-02-17T15:17:46.089Z,35.10
2019-02-17T15:20:40.758Z,35.75
2019-02-17T15:23:35.671Z,34.60
2019-02-17T15:26:30.500Z,35.28
2019-02-17T15:29:25.273Z,34.95
2019-02-17T15:32:20.129Z,34.38
2019-02-17T15:35:14.845Z,32.65
2019-02-17T15:38:09.727Z,31.00
2019-02-17T15:41:04.591Z,29.25
2019-02-17T15:43:59.498Z,30.08
2019-02-17T15:46:54.352Z,29.15
2019-02-17T15:49:48.949Z,28.38
2019-02-17T15:52:44.088Z,29.45
2019-02-17T15:55:39.171Z,27.85
2019-02-17T15:58:33.936Z,25.88
2019-02-17T16:01:28.878Z,28.77
2019-02-17T16:04:28.574Z,27.87
2019-02-17T16:07:18.822Z,27.62
2019-02-17T16:10:14.899Z,26.35
2019-02-17T16:13:09.800Z,26.50
2019-02-17T16:16:04.597Z,27.60
2019-02-17T16:18:59.641Z,28.47
2019-02-17T16:21:54.658Z,27.90
2019-02-17T16:24:49.128Z,27.37
2019-02-17T16:27:44.941Z,27.32
2019-02-17T16:30:39.731Z,27.05
2019-02-17T16:33:34.692Z,27.98
2019-02-17T16:36:29.752Z,28.30
2019-02-17T16:39:24.419Z,26.02
2019-02-17T16:42:18.979Z,26.25
2019-02-17T16:45:15.156Z,26.77
2019-02-17T16:48:09.930Z,26.93
2019-02-17T16:51:05.377Z,26.45
2019-02-17T16:54:00.173Z,27.52
2019-02-17T16:56:55.158Z,25.77
2019-02-17T16:59:49.718Z,25.62
2019-02-17T17:02:44.765Z,26.57
2019-02-17T17:05:39.629Z,25.70
2019-02-17T17:08:34.645Z,26.55
2019-02-17T17:11:29.232Z,25.72
2019-02-17T17:14:23.857Z,26.87
2019-02-17T17:17:18.458Z,25.20
2019-02-17T17:20:13.768Z,25.85
2019-02-17T17:23:08.423Z,24.45
2019-02-17T17:26:03.090Z,25.08
2019-02-17T17:28:57.966Z,25.32
2019-02-17T17:31:52.767Z,25.48
2019-02-17T17:34:47.587Z,25.85
2019-02-17T17:37:42.505Z,26.68
2019-02-17T17:40:37.327Z,25.60
2019-02-17T17:43:32.112Z,26.60
2019-02-17T17:46:27.125Z,26.10
2019-02-17T17:49:21.802Z,28.25
2019-02-17T17:52:17.615Z,27.90
2019-02-17T17:55:13.201Z,27.35
2019-02-17T17:58:07.923Z,28.75
2019-02-17T18:01:02.194Z,28.92
2019-02-17T18:03:57.260Z,29.45
2019-02-17T18:06:51.921Z,30.82
2019-02-17T18:09:47.294Z,30.97
2019-02-17T18:12:41.980Z,34.48
2019-02-17T18:15:36.564Z,38.67
2019-02-17T18:18:31.396Z,39.20
2019-02-17T18:21:26.188Z,43.85
2019-02-17T18:24:20.978Z,46.65
2019-02-17T18:27:15.849Z,44.50
2019-02-17T18:30:11.613Z,40.90
2019-02-17T18:33:07.381Z,40.10
2019-02-17T18:36:02.244Z,38.40
2019-02-17T18:38:56.840Z,39.55
2019-02-17T18:41:51.605Z,38.33
2019-02-17T18:44:46.665Z,37.63
2019-02-17T18:47:41.647Z,38.88
2019-02-17T18:50:36.702Z,38.58
2019-02-17T18:53:31.525Z,39.75
2019-02-17T18:56:26.400Z,38.58
2019-02-17T18:59:21.340Z,42.27
2019-02-17T19:02:16.199Z,43.65
2019-02-17T19:05:11.415Z,44.23
2019-02-17T19:08:06.340Z,49.80
2019-02-17T19:11:00.933Z,54.55
2019-02-17T19:13:55.783Z,54.85
2019-02-17T19:16:50.297Z,47.10
2019-02-17T19:19:45.103Z,40.05
2019-02-17T19:22:39.627Z,36.60
2019-02-17T19:25:34.649Z,32.93
2019-02-17T19:28:29.204Z,29.35
2019-02-17T19:31:23.770Z,28.45
2019-02-17T19:34:18.758Z,27.05
2019-02-17T19:37:14.464Z,24.98
2019-02-17T19:40:09.324Z,25.25
2019-02-17T19:43:04.129Z,23.27
2019-02-17T19:45:58.683Z,23.67
2019-02-17T19:48:53.728Z,23.00
2019-02-17T19:51:49.712Z,21.82
2019-02-17T19:54:43.864Z,22.00
2019-02-17T19:57:38.612Z,22.13
2019-02-17T20:00:33.644Z,21.37
2019-02-17T20:03:46.076Z,22.27
2019-02-17T20:06:40.942Z,21.65
2019-02-17T20:09:35.804Z,23.22
2019-02-17T20:12:30.430Z,23.05
2019-02-17T20:15:25.507Z,23.45
2019-02-17T20:18:20.354Z,24.60
2019-02-17T20:21:15.073Z,25.75
2019-02-17T20:24:09.711Z,25.08
2019-02-17T20:27:04.338Z,24.60
2019-02-17T20:29:59.120Z,24.63
2019-02-17T20:32:53.853Z,25.77
2019-02-17T20:35:48.724Z,27.13
2019-02-17T20:38:43.610Z,31.15
2019-02-17T20:41:38.463Z,32.00
2019-02-17T20:44:33.027Z,31.02
2019-02-17T20:47:27.734Z,32.50
2019-02-17T20:50:22.500Z,33.60
2019-02-17T20:53:17.382Z,34.70
2019-02-17T20:56:12.247Z,37.05
2019-02-17T20:59:07.041Z,38.63
2019-02-17T21:02:01.710Z,40.90
2019-02-17T21:04:56.670Z,44.90
2019-02-17T21:07:51.336Z,43.55
2019-02-17T21:10:45.766Z,45.70
2019-02-17T21:13:40.525Z,47.67
2019-02-17T21:16:35.130Z,47.53
2019-02-17T21:19:29.843Z,48.25
2019-02-17T21:22:24.909Z,47.15
2019-02-17T21:25:19.819Z,48.02
2019-02-17T21:28:14.405Z,46.98
2019-02-17T21:31:09.233Z,46.92
2019-02-17T21:34:04.086Z,45.35
2019-02-17T21:36:58.906Z,46.18
2019-02-17T21:39:53.735Z,47.13
2019-02-17T21:42:48.251Z,49.33
2019-02-17T21:45:43.020Z,50.08
2019-02-17T21:48:38.365Z,49.65
2019-02-17T21:51:33.215Z,48.63
2019-02-17T21:54:27.817Z,47.53
2019-02-17T21:57:22.472Z,47.93
2019-02-17T22:00:19.418Z,47.43
2019-02-17T22:03:14.764Z,47.50
2019-02-17T22:06:10.251Z,48.13
2019-02-17T22:09:05.218Z,47.78
2019-02-17T22:12:00.247Z,47.78
2019-02-17T22:14:55.021Z,49.00
2019-02-17T22:17:49.703Z,46.92
2019-02-17T22:20:44.470Z,48.90
2019-02-17T22:23:39.993Z,44.15
2019-02-17T22:26:34.545Z,38.83
2019-02-17T22:29:29.188Z,36.25
2019-02-17T22:32:24.039Z,30.82
2019-02-17T22:35:19.104Z,27.50
2019-02-17T22:38:13.731Z,28.35
2019-02-17T22:41:08.336Z,33.80
2019-02-17T22:44:03.098Z,32.67
2019-02-17T22:46:57.735Z,32.60
2019-02-17T22:49:52.615Z,38.20
2019-02-17T22:52:47.527Z,36.55
2019-02-17T22:55:42.512Z,40.63
2019-02-17T22:58:36.914Z,41.13
2019-02-17T23:01:34.793Z,40.88
2019-02-17T23:04:29.624Z,42.25
2019-02-17T23:07:24.210Z,39.13
2019-02-17T23:10:19.055Z,38.83
2019-02-17T23:13:13.908Z,38.88
2019-02-17T23:16:08.657Z,36.63
2019-02-17T23:19:03.445Z,33.90
2019-02-17T23:21:58.386Z,31.30
2019-02-17T23:24:53.237Z,29.50
2019-02-17T23:27:48.625Z,28.73
2019-02-17T23:30:43.160Z,27.07
2019-02-17T23:33:37.990Z,27.77
2019-02-17T23:36:32.595Z,26.73
2019-02-17T23:39:27.385Z,27.42
2019-02-17T23:42:21.869Z,26.77
2019-02-17T23:45:16.759Z,28.15
2019-02-17T23:48:11.940Z,28.55
2019-02-17T23:51:06.545Z,29.27
2019-02-17T23:54:01.124Z,29.60
2019-02-17T23:56:55.987Z,28.95
2019-02-17T23:59:50.609Z,31.07
